Time;durP1;ratioP1;P1;durP2;ratioP2;P2;SDS_P1;SDS_P2;PMS_P1;PMS_P2;Temp;Humidity;BMP_temperature;BMP_pressure;BME280_temperature;BME280_humidity;BME280_pressure;Samples;Min_cycle;Max_cycle;Signal;HPM_P1;HPM_P2
2022/09/29 00:01:29;;;;;;;3.85;1.85;;;;;;;16.14;65.81;94586.06;4966569;28;20070;-87
2022/09/29 00:03:54;;;;;;;4.22;1.90;;;;;;;16.12;65.81;94580.88;4968563;28;20062;-88
2022/09/29 00:06:20;;;;;;;3.65;1.67;;;;;;;16.17;65.61;94580.19;4967171;28;20038;-90
2022/09/29 00:08:45;;;;;;;3.30;1.70;;;;;;;16.19;65.71;94578.91;4951780;28;20485;-89
2022/09/29 00:11:13;;;;;;;3.88;2.13;;;;;;;16.22;65.62;94579.50;4967443;28;20105;-88
2022/09/29 00:13:38;;;;;;;3.15;2.00;;;;;;;16.21;65.75;94578.66;4983163;28;20117;-88
2022/09/29 00:16:04;;;;;;;4.45;1.80;;;;;;;16.25;65.72;94576.34;4967923;28;20105;-88
2022/09/29 00:18:30;;;;;;;4.90;1.80;;;;;;;15.99;66.37;94575.69;4982876;28;20105;-86
2022/09/29 00:20:59;;;;;;;2.45;1.60;;;;;;;16.03;66.46;94579.56;4984840;28;20062;-86
2022/09/29 00:23:25;;;;;;;4.75;2.15;;;;;;;15.80;67.04;94573.84;4966356;28;20089;-86
2022/09/29 00:26:00;;;;;;;4.00;2.13;;;;;;;15.74;67.43;94571.25;4969568;28;20031;-86
2022/09/29 00:28:26;;;;;;;4.13;2.28;;;;;;;15.69;67.67;94570.06;4968726;28;20462;-87
2022/09/29 00:30:52;;;;;;;5.68;2.15;;;;;;;15.59;67.98;94574.41;4968219;28;20067;-86
2022/09/29 00:33:17;;;;;;;6.55;2.30;;;;;;;15.37;68.55;94573.00;4967474;28;20035;-87
2022/09/29 00:35:43;;;;;;;3.58;1.98;;;;;;;15.59;68.16;94571.69;4965847;28;20027;-87
2022/09/29 00:38:08;;;;;;;5.43;2.17;;;;;;;15.66;67.80;94569.69;4969497;28;20031;-86
2022/09/29 00:40:34;;;;;;;5.60;2.00;;;;;;;15.65;67.78;94574.28;4966079;28;20051;-87
2022/09/29 00:43:00;;;;;;;5.85;2.20;;;;;;;15.76;67.63;94574.56;4983893;28;20033;-87
2022/09/29 00:45:25;;;;;;;3.25;2.10;;;;;;;15.73;67.34;94575.84;4966552;28;20022;-88
2022/09/29 00:48:22;;;;;;;5.88;2.17;;;;;;;15.68;67.33;94575.72;4951277;28;20077;-86
2022/09/29 00:50:50;;;;;;;5.28;2.00;;;;;;;15.68;67.41;94571.13;4955306;28;20074;-87
2022/09/29 00:53:15;;;;;;;5.28;2.45;;;;;;;15.78;67.14;94567.03;4965417;28;20034;-86
2022/09/29 00:55:43;;;;;;;5.07;2.05;;;;;;;15.66;67.34;94567.84;4967848;28;20042;-86
2022/09/29 00:58:23;;;;;;;5.30;2.13;;;;;;;15.69;66.86;94571.94;4949678;28;20026;-88
2022/09/29 01:00:49;;;;;;;3.10;2.45;;;;;;;15.71;66.93;94556.31;4983552;28;20049;-87
2022/09/29 01:03:19;;;;;;;3.78;1.95;;;;;;;15.59;67.39;94564.38;4967012;28;20023;-87
2022/09/29 01:05:47;;;;;;;3.03;2.15;;;;;;;15.65;67.28;94568.06;4950211;28;20437;-87
2022/09/29 01:08:33;;;;;;;2.97;1.90;;;;;;;15.57;67.29;94571.91;4967504;28;20030;-86
2022/09/29 01:10:58;;;;;;;6.07;2.42;;;;;;;15.69;67.09;94563.84;4966176;28;20042;-87
2022/09/29 01:13:24;;;;;;;5.18;2.00;;;;;;;15.62;67.27;94569.34;4983834;28;20027;-87
2022/09/29 01:15:49;;;;;;;6.45;2.08;;;;;;;15.72;67.29;94562.56;4967919;28;20030;-87
2022/09/29 01:18:15;;;;;;;3.42;2.15;;;;;;;15.72;66.91;94568.78;4967074;28;20473;-87
2022/09/29 01:20:47;;;;;;;3.17;1.88;;;;;;;15.72;66.74;94565.28;4951010;28;20075;-87
2022/09/29 01:23:43;;;;;;;3.28;2.28;;;;;;;15.70;66.88;94571.72;4965440;28;20031;-87
2022/09/29 01:26:11;;;;;;;6.53;2.00;;;;;;;15.74;66.82;94571.25;4968756;28;20027;-86
2022/09/29 01:29:14;;;;;;;2.78;1.90;;;;;;;15.61;67.10;94581.22;4967176;28;20026;-88
2022/09/29 01:31:48;;;;;;;6.53;2.30;;;;;;;15.61;67.26;94578.50;4967522;28;20054;-89
2022/09/29 01:34:17;;;;;;;7.63;2.40;;;;;;;15.45;67.92;94579.97;4968496;28;20127;-87
2022/09/29 01:37:00;;;;;;;7.65;2.10;;;;;;;15.42;68.34;94569.63;4966874;28;20114;-88
2022/09/29 01:39:40;;;;;;;7.40;2.38;;;;;;;15.32;68.55;94573.69;4969766;28;20126;-88
2022/09/29 01:42:42;;;;;;;3.28;2.15;;;;;;;15.49;68.05;94580.34;4970164;28;20035;-88
2022/09/29 01:45:38;;;;;;;4.43;2.08;;;;;;;15.49;68.05;94580.34;4988164;28;20027;-88
2022/09/29 01:48:11;;;;;;;6.53;2.10;;;;;;;15.30;68.63;94577.66;4955661;28;20046;-88
2022/09/29 01:50:39;;;;;;;3.70;1.90;;;;;;;15.36;68.63;94587.59;4985816;28;20035;-88
2022/09/29 01:53:11;;;;;;;4.47;2.25;;;;;;;15.41;68.62;94582.28;4970328;28;20050;-87
2022/09/29 01:55:40;;;;;;;5.93;2.33;;;;;;;15.34;69.06;94589.69;4970582;28;20414;-88
2022/09/29 01:58:08;;;;;;;3.25;2.00;;;;;;;15.43;68.81;94592.88;4969528;28;20035;-88
2022/09/29 02:00:42;;;;;;;5.57;2.35;;;;;;;15.51;68.54;94586.34;4971044;28;20027;-88
2022/09/29 02:03:25;;;;;;;5.30;1.80;;;;;;;15.59;68.29;94591.41;4953249;28;20026;-88
2022/09/29 02:05:55;;;;;;;4.03;1.80;;;;;;;15.61;68.59;94588.47;4986715;28;20420;-88
2022/09/29 02:08:31;;;;;;;3.85;2.15;;;;;;;15.60;68.25;94593.09;4954406;28;20293;-88
2022/09/29 02:11:07;;;;;;;5.75;2.30;;;;;;;15.68;67.98;94581.13;4969366;28;20037;-88
2022/09/29 02:13:50;;;;;;;9.25;2.10;;;;;;;15.67;68.33;94590.28;4970585;28;20027;-89
2022/09/29 02:16:21;;;;;;;5.25;2.38;;;;;;;15.61;68.48;94589.31;4984107;28;20111;-88
2022/09/29 02:18:54;;;;;;;2.88;2.15;;;;;;;15.66;68.50;94588.63;4970108;28;20041;-87
2022/09/29 02:21:20;;;;;;;5.70;2.53;;;;;;;15.75;68.23;94595.34;4970111;28;20038;-87
2022/09/29 02:23:46;;;;;;;5.53;2.35;;;;;;;15.66;68.27;94597.56;4969150;28;20518;-87
2022/09/29 02:26:11;;;;;;;3.53;2.00;;;;;;;15.68;68.08;94600.88;4970197;28;20420;-88
2022/09/29 02:28:37;;;;;;;2.60;2.00;;;;;;;15.75;68.35;94594.53;4971838;28;20030;-88
2022/09/29 02:31:02;;;;;;;10.73;2.40;;;;;;;15.77;68.33;94595.94;4979637;28;20043;-87
2022/09/29 02:33:27;;;;;;;4.32;2.08;;;;;;;15.82;67.89;94584.44;4979203;28;20466;-89
2022/09/29 02:36:18;;;;;;;3.60;2.20;;;;;;;15.78;68.26;94594.06;4982770;28;20474;-88
2022/09/29 02:38:53;;;;;;;2.47;1.92;;;;;;;15.84;68.12;94592.31;4983117;28;20035;-88
2022/09/29 02:41:32;;;;;;;4.47;2.50;;;;;;;15.86;68.16;94587.50;4964053;28;20027;-89
2022/09/29 02:43:57;;;;;;;5.43;2.80;;;;;;;15.86;68.02;94587.50;4983585;28;20058;-88
2022/09/29 02:46:38;;;;;;;5.30;2.70;;;;;;;15.69;68.84;94575.47;4982303;28;20085;-88
2022/09/29 02:49:16;;;;;;;9.32;2.70;;;;;;;15.55;69.18;94558.63;4983772;28;20035;-88
2022/09/29 02:51:55;;;;;;;5.05;2.58;;;;;;;15.42;69.20;94559.66;4973277;28;20509;-88
2022/09/29 02:54:24;;;;;;;5.93;2.53;;;;;;;15.32;69.60;94565.59;4953918;28;20608;-87
2022/09/29 02:56:55;;;;;;;3.85;2.45;;;;;;;15.27;69.48;94562.75;4972025;28;20046;-87
2022/09/29 02:59:24;;;;;;;7.32;2.67;;;;;;;15.18;69.83;94562.25;4969809;28;20085;-87
2022/09/29 03:01:52;;;;;;;7.95;2.70;;;;;;;15.15;70.11;94565.41;4961658;28;20098;-88
2022/09/29 03:04:19;;;;;;;5.18;2.58;;;;;;;15.15;69.95;94564.56;4955101;28;20513;-89
2022/09/29 03:06:44;;;;;;;3.42;2.50;;;;;;;14.94;70.86;94572.91;4969086;28;20034;-88
2022/09/29 03:09:10;;;;;;;5.50;2.80;;;;;;;14.92;71.11;94583.13;4985700;28;20497;-88
2022/09/29 03:11:35;;;;;;;6.28;2.88;;;;;;;14.99;70.85;94587.63;4970693;28;20035;-89
2022/09/29 03:14:00;;;;;;;7.80;2.80;;;;;;;15.11;70.03;94585.81;4955024;28;20401;-88
2022/09/29 03:16:26;;;;;;;6.10;2.55;;;;;;;15.10;70.01;94586.88;4971353;28;20034;-87
2022/09/29 03:18:51;;;;;;;4.93;2.33;;;;;;;15.10;69.52;94586.03;4970057;28;20042;-88
2022/09/29 03:21:17;;;;;;;7.40;3.33;;;;;;;15.14;69.59;94590.75;4985486;28;20494;-88
2022/09/29 03:23:42;;;;;;;4.82;2.60;;;;;;;15.20;69.05;94589.84;4969655;28;20586;-88
2022/09/29 03:26:07;;;;;;;4.00;2.47;;;;;;;15.12;68.95;94603.66;4970627;28;20030;-87
2022/09/29 03:28:33;;;;;;;4.90;2.70;;;;;;;15.05;69.17;94619.94;4984580;28;20046;-85
2022/09/29 03:31:05;;;;;;;5.63;2.50;;;;;;;15.09;69.53;94633.81;4985449;28;20046;-88
2022/09/29 03:33:31;;;;;;;4.18;2.65;;;;;;;15.25;69.30;94631.56;4968172;28;20026;-87
2022/09/29 03:35:57;;;;;;;6.18;2.25;;;;;;;15.18;69.37;94632.47;4971000;28;20545;-87
2022/09/29 03:38:22;;;;;;;10.23;3.10;;;;;;;15.23;69.29;94637.19;4969337;28;20450;-86
2022/09/29 03:40:47;;;;;;;8.88;2.85;;;;;;;15.26;69.32;94644.00;4969928;28;20081;-86
2022/09/29 03:43:13;;;;;;;5.60;3.20;;;;;;;15.35;69.25;94639.94;4967413;28;20023;-87
2022/09/29 03:45:49;;;;;;;8.70;3.03;;;;;;;15.31;69.71;94638.75;4985027;28;20039;-88
2022/09/29 03:48:15;;;;;;;7.10;3.05;;;;;;;15.35;69.49;94637.25;4969530;28;20026;-88
2022/09/29 03:50:41;;;;;;;8.82;3.38;;;;;;;15.29;69.25;94635.44;4967759;28;20034;-88
2022/09/29 03:53:06;;;;;;;9.20;3.17;;;;;;;15.29;69.24;94624.66;4968321;28;20433;-87
2022/09/29 03:55:32;;;;;;;10.52;3.88;;;;;;;15.13;69.70;94621.53;4968265;28;20030;-89
2022/09/29 03:57:57;;;;;;;8.48;3.40;;;;;;;15.14;69.67;94622.31;4968548;28;20478;-88
2022/09/29 04:00:22;;;;;;;6.72;3.10;;;;;;;15.10;69.52;94616.56;4966998;28;20054;-88
2022/09/29 04:02:48;;;;;;;4.40;3.05;;;;;;;15.14;69.39;94617.75;4968321;28;20441;-88
2022/09/29 04:05:13;;;;;;;6.05;2.83;;;;;;;14.95;69.94;94619.63;4967056;28;20513;-88
2022/09/29 04:07:39;;;;;;;4.88;3.22;;;;;;;14.87;69.47;94617.22;4952060;28;20114;-86
2022/09/29 04:10:04;;;;;;;5.90;3.40;;;;;;;14.98;68.61;94615.69;4970244;28;20031;-87
2022/09/29 04:12:30;;;;;;;7.78;3.78;;;;;;;14.81;67.96;94610.88;4957609;28;20037;-86
2022/09/29 04:14:56;;;;;;;7.00;3.13;;;;;;;14.64;68.71;94611.41;4971197;28;20385;-87
2022/09/29 04:17:21;;;;;;;7.75;3.47;;;;;;;14.56;68.82;94609.00;4950356;28;20090;-87
2022/09/29 04:19:47;;;;;;;5.68;2.88;;;;;;;14.57;68.75;94610.66;4968596;28;20030;-88
2022/09/29 04:22:17;;;;;;;8.93;3.22;;;;;;;14.51;68.51;94603.47;4966469;28;20034;-88
2022/09/29 04:24:42;;;;;;;13.73;3.50;;;;;;;14.45;68.87;94589.81;4984193;28;20490;-88
2022/09/29 04:27:08;;;;;;;5.78;3.75;;;;;;;14.51;68.25;94584.56;4984623;28;20027;-89
2022/09/29 04:29:33;;;;;;;7.82;3.80;;;;;;;14.46;68.49;94594.13;4967416;28;20035;-87
2022/09/29 04:31:59;;;;;;;5.63;3.78;;;;;;;14.51;68.40;94582.69;4984238;28;20407;-87
2022/09/29 04:34:24;;;;;;;5.72;3.67;;;;;;;14.50;68.40;94591.81;4950315;28;20062;-88
2022/09/29 04:36:50;;;;;;;7.40;3.67;;;;;;;14.42;68.75;94597.50;4968165;28;20031;-88
2022/09/29 04:39:15;;;;;;;9.68;4.38;;;;;;;14.44;68.77;94598.13;4949813;28;20042;-88
2022/09/29 04:41:40;;;;;;;9.57;4.43;;;;;;;14.34;69.34;94598.63;4951867;28;20034;-89
2022/09/29 04:44:06;;;;;;;5.43;4.45;;;;;;;14.38;69.21;94594.41;4982756;28;20019;-87
2022/09/29 04:46:31;;;;;;;8.27;4.50;;;;;;;14.51;68.86;94590.78;4967211;28;20600;-86
2022/09/29 04:48:58;;;;;;;10.98;5.50;;;;;;;14.59;68.69;94584.25;4985152;28;20413;-88
2022/09/29 04:51:23;;;;;;;9.65;4.60;;;;;;;14.61;68.47;94584.88;4966686;28;20089;-88
2022/09/29 04:53:49;;;;;;;7.53;4.70;;;;;;;14.56;68.81;94590.09;4984598;28;20126;-88
2022/09/29 04:56:14;;;;;;;10.50;4.93;;;;;;;14.48;69.25;94604.72;4983894;28;20031;-87
2022/09/29 04:58:40;;;;;;;7.40;4.53;;;;;;;14.51;69.31;94606.97;4952337;28;20433;-89
2022/09/29 05:01:06;;;;;;;10.10;5.28;;;;;;;14.70;68.68;94613.22;4967698;28;20518;-88
2022/09/29 05:03:32;;;;;;;7.78;4.63;;;;;;;14.85;68.40;94598.56;4951517;28;20030;-87
2022/09/29 05:05:57;;;;;;;12.20;4.57;;;;;;;14.99;67.69;94603.81;4982806;28;20033;-88
2022/09/29 05:08:23;;;;;;;6.90;4.60;;;;;;;15.04;67.13;94603.97;4966766;28;20495;-89
2022/09/29 05:10:50;;;;;;;20.63;6.57;;;;;;;15.02;67.45;94590.69;4967596;28;20533;-88
2022/09/29 05:13:15;;;;;;;9.07;4.75;;;;;;;15.06;67.73;94604.56;4965602;28;20034;-87
2022/09/29 05:15:41;;;;;;;10.02;4.97;;;;;;;15.14;67.29;94603.41;4968345;28;20027;-88
2022/09/29 05:18:06;;;;;;;7.43;5.07;;;;;;;15.16;67.50;94604.84;4969791;28;20487;-87
2022/09/29 05:20:32;;;;;;;7.13;4.70;;;;;;;15.24;67.27;94611.00;4972466;28;20030;-87
2022/09/29 05:22:58;;;;;;;12.35;5.18;;;;;;;15.42;66.81;94618.25;4970029;28;20431;-87
2022/09/29 05:25:24;;;;;;;17.30;6.07;;;;;;;15.60;66.09;94630.09;4970743;28;20055;-87
2022/09/29 05:27:50;;;;;;;12.82;5.95;;;;;;;15.78;65.50;94629.22;4986398;28;20490;-87
2022/09/29 05:30:15;;;;;;;10.77;5.50;;;;;;;15.87;65.31;94630.53;4986069;28;20105;-86
2022/09/29 05:32:42;;;;;;;10.27;5.00;;;;;;;16.04;65.19;94635.34;4971984;28;20588;-88
2022/09/29 05:35:08;;;;;;;11.60;5.93;;;;;;;16.19;65.14;94633.00;4985726;28;20019;-86
2022/09/29 05:37:33;;;;;;;9.50;5.07;;;;;;;16.24;65.10;94631.47;4954940;28;20447;-85
2022/09/29 05:39:59;;;;;;;13.38;5.20;;;;;;;16.31;64.51;94641.13;4969522;28;20030;-86
2022/09/29 05:42:24;;;;;;;7.43;4.60;;;;;;;16.50;64.31;94626.69;4986908;28;20098;-89
2022/09/29 05:44:50;;;;;;;8.13;4.10;;;;;;;16.22;65.50;94629.00;4969572;28;20038;-87
2022/09/29 05:47:15;;;;;;;13.07;4.40;;;;;;;16.30;64.83;94638.66;4954181;28;20035;-86
2022/09/29 05:49:41;;;;;;;7.50;4.18;;;;;;;16.55;64.37;94629.53;4986332;28;20027;-87
2022/09/29 05:52:06;;;;;;;11.70;4.20;;;;;;;16.69;63.68;94635.53;4985689;28;20405;-87
2022/09/29 05:54:32;;;;;;;19.08;4.43;;;;;;;16.92;63.31;94637.41;4970932;28;20034;-88
2022/09/29 05:56:57;;;;;;;8.32;4.05;;;;;;;17.08;63.08;94635.06;4969453;28;20023;-86
2022/09/29 05:59:22;;;;;;;6.13;3.65;;;;;;;17.12;62.62;94638.94;4954684;28;20030;-87
2022/09/29 06:01:48;;;;;;;6.38;3.70;;;;;;;17.28;62.15;94642.78;4968447;28;20038;-87
2022/09/29 06:04:14;;;;;;;6.28;3.58;;;;;;;17.49;62.17;94634.28;4986507;28;20023;-87
2022/09/29 06:06:39;;;;;;;9.90;4.30;;;;;;;17.70;61.38;94623.81;4968975;28;20111;-89
2022/09/29 06:09:05;;;;;;;10.05;3.70;;;;;;;17.81;61.03;94631.09;4969687;28;20062;-88
2022/09/29 06:11:31;;;;;;;7.95;4.00;;;;;;;17.90;61.04;94634.22;4971581;28;20658;-88
2022/09/29 06:13:56;;;;;;;8.35;3.60;;;;;;;17.98;59.78;94633.00;4968858;28;20525;-88
2022/09/29 06:16:23;;;;;;;8.18;3.65;;;;;;;18.12;59.47;94633.56;4970087;28;20085;-88
2022/09/29 06:18:49;;;;;;;7.88;3.50;;;;;;;18.02;59.74;94631.47;4951837;28;20453;-87
2022/09/29 06:21:17;;;;;;;8.98;3.15;;;;;;;18.15;59.70;94628.44;4969937;28;20121;-88
2022/09/29 06:23:42;;;;;;;7.40;2.90;;;;;;;18.23;59.60;94629.13;4968213;28;20138;-87
2022/09/29 06:26:11;;;;;;;5.57;2.78;;;;;;;18.16;59.31;94632.00;4969557;28;20513;-88
2022/09/29 06:28:36;;;;;;;6.93;2.72;;;;;;;18.19;58.39;94634.22;4952866;28;20486;-88
2022/09/29 06:31:04;;;;;;;7.70;2.72;;;;;;;18.19;58.29;94645.06;4968468;28;20561;-88
2022/09/29 06:33:29;;;;;;;6.68;2.70;;;;;;;18.18;57.84;94645.31;4953465;28;20026;-88
2022/09/29 06:38:40;;;;;;;7.43;2.60;;;;;;;18.08;57.99;94638.63;4983823;28;20186;-88
2022/09/29 06:41:06;;;;;;;4.93;2.60;;;;;;;18.11;57.62;94648.16;4968518;28;20505;-88
2022/09/29 06:43:32;;;;;;;6.78;3.00;;;;;;;18.00;58.53;94647.97;4985400;28;20034;-87
2022/09/29 06:45:58;;;;;;;10.70;2.38;;;;;;;18.03;57.93;94652.09;4968907;28;20034;-88
2022/09/29 06:48:23;;;;;;;8.35;2.88;;;;;;;17.92;58.37;94646.50;4968480;28;20498;-88
2022/09/29 06:50:48;;;;;;;5.03;1.92;;;;;;;17.82;58.73;94651.72;4969066;28;20449;-88
2022/09/29 06:53:14;;;;;;;9.07;2.25;;;;;;;17.99;59.08;94640.91;4967592;28;20493;-87
2022/09/29 06:55:39;;;;;;;10.60;2.50;;;;;;;18.01;59.22;94648.78;4985888;28;20521;-88
2022/09/29 06:58:05;;;;;;;10.15;2.88;;;;;;;17.96;59.76;94651.44;4951271;28;20765;-88
2022/09/29 07:00:32;;;;;;;10.65;2.42;;;;;;;18.31;59.78;94658.59;4970441;28;20034;-88
2022/09/29 07:02:57;;;;;;;5.10;2.33;;;;;;;18.20;59.88;94656.75;4967949;28;20033;-88
2022/09/29 07:05:22;;;;;;;7.38;3.10;;;;;;;18.00;60.08;94658.84;4968680;28;20022;-88
2022/09/29 07:07:48;;;;;;;10.75;2.67;;;;;;;18.00;59.29;94658.00;4968551;28;20023;-87
2022/09/29 07:10:14;;;;;;;5.53;2.25;;;;;;;18.18;59.18;94667.03;4951742;28;20022;-87
2022/09/29 07:12:40;;;;;;;5.70;2.15;;;;;;;18.04;60.07;94664.56;4953597;28;20046;-87
2022/09/29 07:15:06;;;;;;;8.50;2.55;;;;;;;18.32;59.64;94662.94;4951344;28;20031;-88
2022/09/29 07:17:31;;;;;;;5.18;2.10;;;;;;;18.43;58.69;94660.41;4969701;28;20022;-89
2022/09/29 07:19:57;;;;;;;9.45;2.38;;;;;;;18.66;59.05;94664.84;4968895;28;20035;-89
2022/09/29 07:22:23;;;;;;;9.32;2.60;;;;;;;18.99;59.61;94654.22;4970167;28;20038;-87
2022/09/29 07:24:49;;;;;;;8.30;2.47;;;;;;;19.24;57.72;94648.34;4968045;28;20034;-89
2022/09/29 07:27:18;;;;;;;9.25;2.63;;;;;;;19.34;57.16;94644.09;4967742;28;20886;-87
2022/09/29 07:29:43;;;;;;;9.75;2.47;;;;;;;19.30;57.37;94641.06;4968329;28;20129;-88
2022/09/29 07:32:09;;;;;;;8.65;2.42;;;;;;;19.54;56.74;94640.81;4982940;28;20129;-87
2022/09/29 07:34:34;;;;;;;8.63;2.30;;;;;;;19.64;56.38;94646.38;4984921;28;20134;-87
2022/09/29 07:36:59;;;;;;;7.32;2.50;;;;;;;19.76;56.38;94650.88;4967013;28;20486;-88
2022/09/29 07:39:25;;;;;;;9.50;2.53;;;;;;;19.84;56.44;94653.13;4984016;28;20026;-88
2022/09/29 07:41:50;;;;;;;6.45;2.40;;;;;;;19.86;56.20;94659.13;4968496;28;20469;-89
2022/09/29 07:44:16;;;;;;;9.70;2.92;;;;;;;20.03;56.18;94658.25;4967721;28;20033;-88
2022/09/29 07:46:42;;;;;;;12.48;2.60;;;;;;;20.09;54.47;94650.94;4984073;28;20031;-89
2022/09/29 07:49:07;;;;;;;8.20;2.85;;;;;;;19.96;54.72;94660.31;4967862;28;20513;-89
2022/09/29 07:51:33;;;;;;;17.17;4.25;;;;;;;20.02;55.52;94664.75;4952327;28;20099;-89
2022/09/29 07:54:02;;;;;;;8.45;2.42;;;;;;;19.89;55.58;94672.22;4950640;28;20035;-87
2022/09/29 07:56:28;;;;;;;11.80;2.60;;;;;;;19.90;55.30;94670.34;4952765;28;20406;-87
2022/09/29 07:58:53;;;;;;;12.50;3.13;;;;;;;19.75;56.12;94671.78;4982835;28;20470;-87
2022/09/29 08:01:19;;;;;;;7.82;2.30;;;;;;;19.77;56.68;94682.44;4967805;28;20030;-89
2022/09/29 08:03:49;;;;;;;8.45;2.17;;;;;;;19.80;56.48;94683.84;4983227;28;20342;-89
2022/09/29 08:06:14;;;;;;;9.90;2.33;;;;;;;19.67;57.16;94693.19;4967348;28;20410;-87
2022/09/29 08:08:40;;;;;;;17.45;2.80;;;;;;;19.64;57.60;94689.91;4969415;28;20030;-87
2022/09/29 08:11:10;;;;;;;8.02;2.58;;;;;;;19.81;56.17;94694.47;4966357;28;20179;-89
2022/09/29 08:13:36;;;;;;;7.95;2.88;;;;;;;20.03;56.01;94692.81;4967916;28;20482;-86
2022/09/29 08:16:02;;;;;;;12.85;3.00;;;;;;;19.98;55.68;94699.81;4965918;28;20034;-88
2022/09/29 08:18:30;;;;;;;14.77;3.28;;;;;;;19.83;56.79;94700.44;4967486;28;20085;-87
2022/09/29 08:20:56;;;;;;;13.85;2.65;;;;;;;19.93;56.73;94707.09;4966568;28;20037;-88
2022/09/29 08:23:22;;;;;;;6.22;2.90;;;;;;;19.83;56.20;94695.00;4968184;28;20030;-87
2022/09/29 08:25:47;;;;;;;8.10;2.75;;;;;;;19.85;57.73;94694.75;4967547;28;20034;-87
2022/09/29 08:28:13;;;;;;;12.80;4.05;;;;;;;20.01;56.41;94701.19;4967494;28;20490;-89
2022/09/29 08:30:38;;;;;;;13.52;3.15;;;;;;;20.13;55.94;94696.44;4967401;28;20427;-88
2022/09/29 08:33:07;;;;;;;15.70;2.70;;;;;;;20.12;54.08;94697.53;4966128;28;20417;-88
2022/09/29 08:35:33;;;;;;;9.50;2.63;;;;;;;20.16;54.82;94702.47;4967449;28;20035;-88
2022/09/29 08:37:58;;;;;;;8.00;2.55;;;;;;;20.15;54.21;94696.22;4967621;28;20038;-88
2022/09/29 08:40:27;;;;;;;7.78;2.70;;;;;;;20.16;54.94;94689.69;4968633;28;20486;-90
2022/09/29 08:43:02;;;;;;;6.28;2.28;;;;;;;20.28;55.41;94689.53;4966791;28;20528;-89
2022/09/29 08:45:32;;;;;;;7.07;2.83;;;;;;;20.21;56.38;94695.19;4981698;28;20033;-88
2022/09/29 08:48:12;;;;;;;10.93;2.35;;;;;;;20.41;54.45;94695.66;4967286;28;20096;-89
2022/09/29 08:50:47;;;;;;;10.20;2.80;;;;;;;20.50;54.99;94699.56;4965426;28;20081;-88
2022/09/29 08:53:15;;;;;;;7.68;2.65;;;;;;;20.57;53.30;94697.44;4967442;28;20035;-87
2022/09/29 08:55:42;;;;;;;9.13;2.40;;;;;;;20.71;53.28;94708.75;4965830;28;20038;-87
2022/09/29 08:58:10;;;;;;;8.32;2.90;;;;;;;20.67;52.48;94704.88;4966727;28;20101;-88
2022/09/29 09:00:44;;;;;;;12.65;3.45;;;;;;;20.60;54.05;94699.63;4982867;28;20034;-89
2022/09/29 09:03:29;;;;;;;8.63;2.45;;;;;;;20.77;52.55;94701.41;4965686;28;20022;-88
2022/09/29 09:06:24;;;;;;;7.30;2.67;;;;;;;21.06;50.27;94701.13;4968704;28;20054;-87
2022/09/29 09:08:57;;;;;;;10.95;2.90;;;;;;;21.24;51.15;94688.97;4967659;28;20126;-87
2022/09/29 09:11:32;;;;;;;5.78;2.40;;;;;;;21.49;50.14;94692.09;4982222;28;20023;-88
2022/09/29 09:14:27;;;;;;;7.22;2.65;;;;;;;21.63;48.67;94694.34;4983471;28;20077;-88
2022/09/29 09:16:52;;;;;;;5.18;2.40;;;;;;;21.83;47.99;94690.91;4965932;28;20516;-87
2022/09/29 09:19:36;;;;;;;7.60;1.63;;;;;;;21.91;44.99;94700.53;4968581;28;20027;-87
2022/09/29 09:22:23;;;;;;;4.90;1.42;;;;;;;21.84;42.94;94698.03;4968096;28;20541;-87
2022/09/29 09:25:06;;;;;;;6.35;1.40;;;;;;;21.49;43.57;94698.38;4965798;28;20039;-89
2022/09/29 09:27:43;;;;;;;5.75;1.73;;;;;;;21.61;43.77;94691.91;4982693;28;20102;-87
2022/09/29 09:30:12;;;;;;;5.07;1.50;;;;;;;21.68;43.22;94683.47;4949591;28;20071;-87
2022/09/29 09:32:48;;;;;;;4.18;1.38;;;;;;;21.66;43.75;94678.28;4966588;28;20411;-92
2022/09/29 09:35:25;;;;;;;4.85;1.50;;;;;;;21.73;43.46;94681.56;4982733;28;20090;-87
2022/09/29 09:37:52;;;;;;;3.55;1.35;;;;;;;21.85;43.28;94686.00;4981385;28;20035;-86
2022/09/29 09:40:25;;;;;;;2.50;1.05;;;;;;;22.04;42.32;94693.75;4966983;28;20043;-87
2022/09/29 09:43:29;;;;;;;4.50;1.40;;;;;;;21.96;41.77;94679.50;4965169;28;20042;-85
2022/09/29 09:46:16;;;;;;;3.33;1.20;;;;;;;21.91;42.40;94679.47;4976307;28;20038;-86
2022/09/29 09:48:44;;;;;;;4.72;1.00;;;;;;;22.07;43.81;94674.88;4982802;28;20456;-87
2022/09/29 09:51:23;;;;;;;5.65;1.23;;;;;;;22.15;42.67;94675.47;4965067;28;20072;-87
2022/09/29 09:53:49;;;;;;;4.63;1.33;;;;;;;22.25;40.51;94691.88;4966585;28;20034;-87
2022/09/29 09:56:39;;;;;;;10.80;1.65;;;;;;;22.32;40.26;94686.97;4965504;28;20476;-89
2022/09/29 09:59:52;;;;;;;8.45;1.45;;;;;;;22.33;40.59;94672.22;4967324;28;20031;-88
2022/09/29 10:02:18;;;;;;;;;;;;;;;22.21;40.38;94688.03;4983162;28;20145;-88
2022/09/29 10:04:44;;;;;;;3.50;1.30;;;;;;;22.04;41.05;94689.09;4968742;28;19914;-88
2022/09/29 10:07:10;;;;;;;4.00;1.20;;;;;;;22.00;40.90;94693.44;4969860;28;20031;-89
2022/09/29 10:09:35;;;;;;;3.63;1.40;;;;;;;21.88;41.65;94681.94;4969449;28;20022;-88
2022/09/29 10:12:01;;;;;;;4.25;1.50;;;;;;;21.86;41.84;94682.19;4969340;28;20033;-87
2022/09/29 10:14:27;;;;;;;3.85;1.98;;;;;;;21.89;42.07;94675.38;4986080;28;20114;-88
2022/09/29 10:17:05;;;;;;;4.72;1.40;;;;;;;22.04;40.87;94672.69;4984583;28;20030;-87
2022/09/29 10:19:57;;;;;;;3.03;1.70;;;;;;;21.89;42.39;94675.38;4970135;28;20026;-87
2022/09/29 10:22:23;;;;;;;6.78;1.52;;;;;;;22.04;42.27;94669.16;4968670;28;20042;-86
2022/09/29 10:24:55;;;;;;;5.22;1.60;;;;;;;22.05;41.04;94682.56;4969169;28;20041;-87
2022/09/29 10:27:24;;;;;;;3.55;1.30;;;;;;;21.94;40.89;94678.16;4954111;28;20045;-87
2022/09/29 10:29:51;;;;;;;4.75;1.10;;;;;;;22.23;40.26;94683.94;4984045;28;20050;-87
2022/09/29 10:32:36;;;;;;;5.15;1.38;;;;;;;22.42;40.74;94671.69;4970139;28;20030;-87
2022/09/29 10:35:14;;;;;;;7.07;1.98;;;;;;;22.17;40.72;94679.56;4967764;28;20242;-87
2022/09/29 10:37:46;;;;;;;6.43;1.50;;;;;;;21.96;41.31;94668.59;4985328;28;20406;-86
2022/09/29 10:40:16;;;;;;;6.15;1.70;;;;;;;22.27;40.68;94672.47;4969317;28;20717;-87
2022/09/29 10:42:47;;;;;;;9.20;1.80;;;;;;;22.27;41.64;94667.00;4968409;28;20034;-86
2022/09/29 10:45:23;;;;;;;4.93;1.48;;;;;;;22.22;40.67;94673.28;4953398;28;20031;-87
2022/09/29 10:47:59;;;;;;;3.55;1.63;;;;;;;22.30;40.72;94663.75;4968119;28;20038;-88
2022/09/29 10:50:33;;;;;;;3.15;1.55;;;;;;;22.16;40.28;94672.47;4969717;28;20896;-87
2022/09/29 10:53:00;;;;;;;3.40;1.38;;;;;;;22.25;40.00;94664.56;4968818;28;20429;-88
2022/09/29 10:55:31;;;;;;;7.43;1.48;;;;;;;22.46;39.26;94668.13;4952468;28;20041;-88
2022/09/29 10:57:58;;;;;;;5.97;1.60;;;;;;;22.41;39.94;94667.34;4969438;28;20107;-87
2022/09/29 11:00:37;;;;;;;4.90;1.65;;;;;;;22.69;40.94;94656.97;4967868;28;20508;-85
2022/09/29 11:03:22;;;;;;;4.55;1.35;;;;;;;22.89;39.36;94655.34;4969192;28;20433;-86
2022/09/29 11:05:57;;;;;;;3.55;1.45;;;;;;;23.06;38.35;94650.41;4968354;28;20027;-88
2022/09/29 11:08:26;;;;;;;2.63;1.25;;;;;;;23.13;37.82;94638.34;4968557;28;20027;-87
2022/09/29 11:11:20;;;;;;;4.07;2.03;;;;;;;23.39;39.02;94646.53;4969712;28;20031;-88
2022/09/29 11:13:45;;;;;;;4.57;1.52;;;;;;;23.49;38.80;94641.00;4966910;28;20418;-86
2022/09/29 11:16:27;;;;;;;4.55;1.60;;;;;;;23.60;38.17;94641.81;4953053;28;20490;-87
2022/09/29 11:18:53;;;;;;;3.30;1.50;;;;;;;23.88;42.42;94641.38;4970981;28;20026;-87
2022/09/29 11:21:18;;;;;;;3.78;1.35;;;;;;;23.91;37.47;94641.66;4972325;28;20440;-87
2022/09/29 11:23:47;;;;;;;3.85;1.52;;;;;;;23.86;37.08;94640.88;4972573;28;20031;-87
2022/09/29 11:26:30;;;;;;;3.08;1.35;;;;;;;23.73;36.77;94634.88;4972247;28;20093;-87
2022/09/29 11:29:24;;;;;;;3.40;1.50;;;;;;;23.73;37.32;94640.34;4971637;28;20042;-86
2022/09/29 11:32:03;;;;;;;4.85;1.48;;;;;;;23.94;37.17;94637.56;4983239;28;20039;-87
2022/09/29 11:34:32;;;;;;;2.97;1.40;;;;;;;24.07;37.49;94639.66;4995082;28;20026;-87
2022/09/29 11:37:25;;;;;;;2.92;1.70;;;;;;;24.17;36.52;94637.97;4987305;28;20023;-87
2022/09/29 11:39:52;;;;;;;4.55;1.40;;;;;;;23.98;36.53;94644.09;4968176;28;20039;-87
2022/09/29 11:43:12;;;;;;;5.47;1.48;;;;;;;23.92;37.90;94645.22;4984243;28;20033;-87
2022/09/29 11:45:42;;;;;;;2.42;1.40;;;;;;;23.95;36.89;94633.69;4986381;28;20034;-88
2022/09/29 11:48:22;;;;;;;2.50;1.50;;;;;;;23.93;37.58;94655.06;4966405;28;20178;-87